Time;durP1;ratioP1;P1;durP2;ratioP2;P2;SDS_P1;SDS_P2;PMS_P1;PMS_P2;Temp;Humidity;BMP_temperature;BMP_pressure;BME280_temperature;BME280_humidity;BME280_pressure;Samples;Min_cycle;Max_cycle;Signal;HPM_P1;HPM_P2
2022/12/20 00:01:37;;;;;;;3.10;1.57;;;13.10;98.00;;;;;;4979287;28;20948;-86
2022/12/20 00:04:13;;;;;;;2.80;1.80;;;13.20;83.40;;;;;;4975728;28;20814;-86
2022/12/20 00:06:48;;;;;;;2.00;1.27;;;13.20;50.00;;;;;;4960354;28;21032;-86
2022/12/20 00:09:24;;;;;;;2.03;1.47;;;13.20;25.80;;;;;;4960279;28;20534;-86
2022/12/20 00:12:05;;;;;;;;;;;;;;;;;;;;;
2022/12/20 00:14:54;;;;;;;2.10;1.23;;;13.20;9.00;;;;;;4980016;28;20445;-85
2022/12/20 00:17:22;;;;;;;1.90;1.57;;;13.20;1.00;;;;;;4969863;28;20546;-86
2022/12/20 00:19:53;;;;;;;2.70;1.50;;;13.20;1.00;;;;;;4981754;28;20443;-87
2022/12/20 00:22:25;;;;;;;4.13;1.87;;;13.20;1.00;;;;;;4977080;28;20446;-86
2022/12/20 00:25:06;;;;;;;3.00;1.60;;;13.20;1.00;;;;;;4960017;28;20440;-87
2022/12/20 00:27:44;;;;;;;1.90;1.50;;;13.20;1.00;;;;;;4980384;28;20455;-87
2022/12/20 00:33:07;;;;;;;6.67;2.10;;;13.30;1.00;;;;;;4982407;28;20468;-87
2022/12/20 00:35:55;;;;;;;3.07;1.90;;;13.30;1.00;;;;;;4967648;28;20445;-86
2022/12/20 00:38:21;;;;;;;2.03;1.60;;;13.30;1.00;;;;;;4968634;28;20471;-86
2022/12/20 00:41:16;;;;;;;3.53;2.00;;;13.30;1.00;;;;;;4970510;28;20448;-87
2022/12/20 00:44:16;;;;;;;3.70;1.60;;;13.30;1.00;;;;;;4949443;28;20531;-86
2022/12/20 00:46:59;;;;;;;2.90;1.50;;;13.40;1.00;;;;;;4978404;28;21063;-86
2022/12/20 00:49:42;;;;;;;4.40;1.87;;;13.40;1.00;;;;;;4992845;28;20439;-84
2022/12/20 00:52:11;;;;;;;2.67;1.50;;;13.40;1.00;;;;;;4979033;28;20427;-86
2022/12/20 00:54:51;;;;;;;2.90;1.57;;;13.40;1.00;;;;;;4959070;28;20429;-83
2022/12/20 01:01:01;;;;;;;1.70;1.40;;;13.40;1.00;;;;;;4975093;28;20451;-86
2022/12/20 01:03:38;;;;;;;;;;;;;;;;;;;;;
2022/12/20 01:06:26;;;;;;;4.60;1.70;;;13.40;1.00;;;;;;4983110;28;20533;-88
2022/12/20 01:08:56;;;;;;;5.93;2.10;;;13.40;1.00;;;;;;4964183;28;20822;-87
2022/12/20 01:11:36;;;;;;;1.80;1.70;;;13.40;1.00;;;;;;4979394;28;20470;-87
2022/12/20 01:14:22;;;;;;;;;;;;;;;;;;;;;
2022/12/20 01:20:21;;;;;;;4.30;2.23;;;13.30;1.00;;;;;;4962798;28;20432;-86
2022/12/20 01:23:04;;;;;;;2.30;1.50;;;13.30;1.00;;;;;;4967648;28;20437;-87
2022/12/20 01:25:39;;;;;;;4.03;1.63;;;13.20;1.00;;;;;;4959689;28;20514;-84
2022/12/20 01:28:04;;;;;;;1.90;1.50;;;13.30;1.00;;;;;;4965126;28;20526;-88
2022/12/20 01:30:30;;;;;;;5.10;1.77;;;13.30;1.00;;;;;;4979035;28;20453;-86
2022/12/20 01:32:55;;;;;;;4.40;1.87;;;13.20;1.00;;;;;;4980147;28;20616;-86
2022/12/20 01:35:21;;;;;;;2.13;1.60;;;13.20;1.00;;;;;;4978549;28;20188;-87
2022/12/20 01:37:47;;;;;;;3.30;1.83;;;13.20;1.00;;;;;;4981944;28;20224;-88
2022/12/20 01:40:12;;;;;;;2.17;1.80;;;13.20;1.00;;;;;;4986868;28;20206;-87
2022/12/20 01:42:38;;;;;;;3.80;2.07;;;13.10;1.00;;;;;;4984555;28;20444;-87
2022/12/20 01:45:11;;;;;;;4.07;2.30;;;13.10;1.00;;;;;;4979048;28;20213;-87
2022/12/20 01:47:37;;;;;;;2.60;1.93;;;13.10;1.00;;;;;;4974597;28;20205;-88
2022/12/20 01:50:04;;;;;;;2.10;1.57;;;13.10;1.00;;;;;;4975556;28;20450;-86
2022/12/20 01:52:37;;;;;;;3.40;2.07;;;13.00;1.00;;;;;;4980622;28;20189;-86
2022/12/20 01:55:11;;;;;;;5.03;2.07;;;13.00;1.00;;;;;;4965568;28;20447;-87
2022/12/20 01:57:58;;;;;;;2.20;1.80;;;13.00;1.00;;;;;;4979125;28;20488;-87
2022/12/20 02:00:23;;;;;;;2.77;1.70;;;12.90;1.00;;;;;;4982170;28;20447;-89
2022/12/20 02:02:49;;;;;;;2.67;1.90;;;12.90;1.00;;;;;;4984670;28;20439;-88
2022/12/20 02:05:17;;;;;;;4.40;2.47;;;12.90;9.00;;;;;;4986950;28;20190;-88
2022/12/20 02:07:47;;;;;;;3.27;2.60;;;12.90;20.30;;;;;;4980034;28;20204;-86
2022/12/20 02:10:15;;;;;;;3.20;2.50;;;12.90;31.70;;;;;;4958215;28;20470;-86
2022/12/20 02:12:43;;;;;;;8.80;2.40;;;12.90;46.10;;;;;;4973844;28;20444;-87
2022/12/20 02:15:27;;;;;;;3.10;2.30;;;12.90;58.00;;;;;;4975602;28;20843;-86
2022/12/20 02:18:19;;;;;;;2.27;1.97;;;12.90;76.70;;;;;;4968808;28;20497;-87
2022/12/20 02:21:01;;;;;;;3.70;2.20;;;12.90;87.10;;;;;;4954215;28;21038;-86
2022/12/20 02:23:39;;;;;;;3.53;2.17;;;12.90;92.90;;;;;;4971307;28;20503;-86
2022/12/20 02:26:26;;;;;;;4.17;2.27;;;12.80;98.70;;;;;;4969039;28;20419;-86
2022/12/20 02:29:10;;;;;;;8.40;2.57;;;12.90;99.90;;;;;;4973991;28;20432;-86
2022/12/20 02:31:47;;;;;;;2.30;2.10;;;12.90;99.90;;;;;;4975395;28;20539;-87
2022/12/20 02:34:14;;;;;;;3.60;1.93;;;12.80;99.90;;;;;;4969625;28;20515;-86
2022/12/20 02:36:39;;;;;;;4.70;2.47;;;12.80;99.90;;;;;;4973674;28;20491;-86
2022/12/20 02:39:05;;;;;;;2.80;2.30;;;12.80;99.90;;;;;;4969656;28;21027;-85
2022/12/20 02:41:38;;;;;;;3.83;2.83;;;12.80;99.90;;;;;;4975480;28;20223;-86
2022/12/20 02:47:01;;;;;;;4.90;2.67;;;12.60;23.20;;;;;;4969780;28;21070;-86
2022/12/20 02:49:31;;;;;;;6.03;2.40;;;12.50;99.90;;;;;;4961356;28;20443;-84
2022/12/20 02:51:59;;;;;;;4.63;2.97;;;12.40;1.00;;;;;;4957344;28;20444;-85
2022/12/20 02:54:26;;;;;;;3.30;2.77;;;12.30;99.90;;;;;;4969119;28;20439;-85
2022/12/20 02:57:07;;;;;;;4.07;2.50;;;12.30;99.90;;;;;;4971408;28;20494;-87
2022/12/20 02:59:51;;;;;;;3.23;2.93;;;12.20;1.00;;;;;;4966874;28;20447;-86
2022/12/20 03:02:17;;;;;;;5.07;2.80;;;12.20;1.00;;;;;;4977147;28;20515;-84
2022/12/20 03:04:44;;;;;;;7.73;3.17;;;12.20;99.90;;;;;;4973096;28;20478;-85
2022/12/20 03:07:14;;;;;;;4.40;2.70;;;12.20;99.90;;;;;;4964853;28;20513;-85
2022/12/20 03:09:42;;;;;;;3.40;2.50;;;12.20;99.90;;;;;;4973386;28;20782;-87
2022/12/20 03:12:10;;;;;;;4.30;2.70;;;12.10;1.00;;;;;;4972198;28;20449;-85
2022/12/20 03:14:36;;;;;;;6.03;3.40;;;12.10;1.00;;;;;;4962516;28;20992;-85
2022/12/20 03:17:02;;;;;;;4.27;3.27;;;12.10;1.00;;;;;;4971006;28;20598;-85
2022/12/20 03:19:28;;;;;;;4.20;2.60;;;12.10;1.00;;;;;;4972356;28;20506;-85
2022/12/20 03:21:53;;;;;;;3.67;2.37;;;12.00;1.00;;;;;;4971299;28;20184;-86
2022/12/20 03:24:19;;;;;;;3.83;2.67;;;12.00;1.00;;;;;;4973348;28;20188;-85
2022/12/20 03:26:44;;;;;;;3.03;2.57;;;12.00;1.00;;;;;;4966027;28;20192;-85
2022/12/20 03:29:10;;;;;;;4.83;2.83;;;12.00;1.00;;;;;;4969636;28;20188;-85
2022/12/20 03:31:36;;;;;;;3.47;2.90;;;11.90;99.90;;;;;;4961082;28;20913;-86
2022/12/20 03:34:02;;;;;;;12.23;3.20;;;11.90;1.00;;;;;;4973128;28;20180;-86
2022/12/20 03:36:28;;;;;;;5.30;3.80;;;11.80;99.90;;;;;;4972264;28;20478;-85
2022/12/20 03:38:54;;;;;;;7.80;3.90;;;11.70;1.00;;;;;;4973381;28;20511;-85
2022/12/20 03:41:20;;;;;;;5.50;3.57;;;11.60;1.00;;;;;;4977318;28;20189;-85
2022/12/20 03:43:47;;;;;;;5.87;3.37;;;11.50;99.90;;;;;;4950075;28;20448;-84
2022/12/20 03:46:13;;;;;;;6.47;4.00;;;11.40;1.00;;;;;;4948448;28;20505;-83
2022/12/20 03:48:38;;;;;;;4.53;3.60;;;11.40;1.00;;;;;;4955166;28;20983;-86
2022/12/20 03:51:04;;;;;;;6.67;3.70;;;11.30;58.00;;;;;;4974095;28;20552;-85
2022/12/20 03:53:30;;;;;;;5.73;3.70;;;11.30;99.90;;;;;;4969154;28;20196;-85
2022/12/20 03:55:56;;;;;;;5.60;3.47;;;11.30;99.90;;;;;;4976586;28;20447;-85
2022/12/20 03:58:21;;;;;;;8.17;4.33;;;11.20;99.90;;;;;;4976896;28;20494;-85
2022/12/20 04:00:47;;;;;;;6.63;3.93;;;11.30;99.90;;;;;;4975897;28;20184;-86
2022/12/20 04:03:13;;;;;;;5.40;3.70;;;11.20;99.90;;;;;;4973447;28;20180;-84
2022/12/20 04:05:38;;;;;;;3.20;2.77;;;11.20;99.90;;;;;;4981851;28;20184;-85
2022/12/20 04:08:04;;;;;;;3.90;2.77;;;11.20;99.90;;;;;;4978267;28;20208;-85
2022/12/20 04:10:29;;;;;;;8.40;3.73;;;11.20;99.90;;;;;;4980489;28;20193;-83
2022/12/20 04:12:55;;;;;;;4.83;3.73;;;11.10;99.90;;;;;;4975704;28;20198;-85
2022/12/20 04:15:20;;;;;;;6.27;3.50;;;11.20;99.90;;;;;;4978045;28;20187;-87
2022/12/20 04:17:46;;;;;;;4.47;2.90;;;11.20;99.90;;;;;;4977172;28;20223;-84
2022/12/20 04:20:18;;;;;;;3.20;2.60;;;11.20;99.90;;;;;;4977435;28;20179;-85
2022/12/20 04:22:48;;;;;;;5.53;2.60;;;11.20;99.90;;;;;;4977226;28;20185;-87
2022/12/20 04:25:18;;;;;;;4.13;3.43;;;11.20;1.00;;;;;;4979598;28;20509;-85
2022/12/20 04:27:44;;;;;;;3.63;2.60;;;11.20;1.00;;;;;;4980181;28;20469;-86
2022/12/20 04:30:11;;;;;;;3.57;2.73;;;11.20;1.00;;;;;;4965467;28;20951;-86
2022/12/20 04:32:36;;;;;;;3.70;2.93;;;11.30;99.90;;;;;;4980052;28;20443;-85
2022/12/20 04:35:02;;;;;;;3.10;2.73;;;11.30;99.90;;;;;;4987034;28;20441;-84
2022/12/20 04:37:29;;;;;;;4.40;2.80;;;11.30;99.90;;;;;;4983097;28;20208;-83
2022/12/20 04:39:55;;;;;;;5.30;2.90;;;11.30;99.90;;;;;;4963200;28;20855;-83
2022/12/20 04:42:21;;;;;;;3.80;2.80;;;11.30;99.90;;;;;;4983262;28;20450;-84
2022/12/20 04:44:46;;;;;;;2.87;2.60;;;11.30;99.90;;;;;;4984481;28;20215;-83
2022/12/20 04:47:12;;;;;;;3.03;2.70;;;11.40;99.90;;;;;;4983857;28;20462;-84
2022/12/20 04:49:37;;;;;;;8.93;2.73;;;11.30;99.90;;;;;;4985535;28;20180;-83
2022/12/20 04:54:47;;;;;;;6.47;2.80;;;11.30;99.90;;;;;;4978714;28;20574;-83
2022/12/20 04:57:13;;;;;;;4.03;2.80;;;11.30;99.90;;;;;;4964418;28;20554;-84
2022/12/20 04:59:38;;;;;;;3.50;2.87;;;11.30;99.90;;;;;;4983983;28;20743;-85
2022/12/20 05:02:04;;;;;;;5.00;3.00;;;11.30;99.90;;;;;;4984125;28;20189;-85
2022/12/20 05:04:30;;;;;;;4.60;2.57;;;11.30;99.90;;;;;;4985047;28;20586;-85
2022/12/20 05:06:55;;;;;;;3.30;2.20;;;11.30;99.90;;;;;;4984904;28;20360;-86
2022/12/20 05:09:21;;;;;;;4.23;2.63;;;11.30;99.90;;;;;;4985351;28;20196;-84
2022/12/20 05:11:46;;;;;;;4.77;2.83;;;11.30;99.90;;;;;;4982582;28;24179;-84
2022/12/20 05:14:12;;;;;;;8.97;3.00;;;11.30;99.90;;;;;;4989600;28;20482;-84
2022/12/20 05:16:37;;;;;;;4.77;2.60;;;11.30;99.90;;;;;;4986689;28;20263;-83
2022/12/20 05:19:03;;;;;;;2.40;2.10;;;11.30;99.90;;;;;;4983721;28;20611;-85
2022/12/20 05:26:58;;;;;;;4.47;3.13;;;11.30;25.10;;;;;;4983470;28;20459;-84
2022/12/20 05:29:23;;;;;;;5.13;2.50;;;11.30;10.30;;;;;;4982611;28;20444;-86
2022/12/20 05:31:49;;;;;;;4.83;2.87;;;11.30;1.00;;;;;;4983074;28;20450;-84
2022/12/20 05:34:14;;;;;;;3.27;2.50;;;11.30;1.00;;;;;;4984910;28;20220;-85
2022/12/20 05:36:40;;;;;;;6.10;3.20;;;11.30;1.00;;;;;;4982529;28;20712;-87
2022/12/20 05:39:06;;;;;;;4.20;2.30;;;11.30;1.00;;;;;;4992382;28;20266;-85
2022/12/20 05:41:31;;;;;;;4.23;2.60;;;11.40;1.00;;;;;;4999528;28;20184;-85
2022/12/20 05:43:57;;;;;;;4.60;2.97;;;11.40;1.00;;;;;;4986203;28;20248;-84
2022/12/20 05:46:22;;;;;;;3.20;2.70;;;11.40;1.00;;;;;;4978193;28;20603;-83
2022/12/20 05:48:48;;;;;;;3.50;2.80;;;11.40;99.90;;;;;;4976670;28;20192;-83
2022/12/20 05:51:13;;;;;;;3.17;2.50;;;11.40;1.00;;;;;;4970021;28;20268;-84
2022/12/20 05:53:39;;;;;;;4.47;2.97;;;11.40;1.00;;;;;;4971843;28;20208;-82
2022/12/20 05:56:05;;;;;;;5.50;3.57;;;11.30;1.00;;;;;;4975184;28;20184;-83
2022/12/20 05:58:31;;;;;;;5.50;3.40;;;11.30;99.90;;;;;;4976170;28;20270;-84
2022/12/20 06:01:00;;;;;;;7.90;3.73;;;11.30;99.90;;;;;;4976109;28;20452;-85
2022/12/20 06:03:25;;;;;;;5.97;3.23;;;11.20;99.90;;;;;;4976894;28;20192;-83
2022/12/20 06:05:51;;;;;;;7.03;3.17;;;11.20;99.90;;;;;;4974506;28;20448;-85
2022/12/20 06:08:16;;;;;;;6.00;3.23;;;11.10;99.90;;;;;;4976478;28;20699;-84
2022/12/20 06:10:42;;;;;;;6.50;3.00;;;11.10;99.90;;;;;;4967874;28;20187;-83
2022/12/20 06:13:09;;;;;;;5.17;2.67;;;11.10;99.90;;;;;;4977320;28;20180;-84
2022/12/20 06:15:35;;;;;;;7.10;2.83;;;11.00;1.00;;;;;;4976437;28;20199;-84
2022/12/20 06:18:00;;;;;;;6.20;3.83;;;11.10;99.90;;;;;;4978192;28;20841;-85
2022/12/20 06:20:27;;;;;;;7.47;4.13;;;11.00;99.90;;;;;;4980932;28;20440;-84
2022/12/20 06:22:53;;;;;;;4.47;3.00;;;11.00;99.90;;;;;;4975363;28;20231;-85
2022/12/20 06:25:19;;;;;;;4.30;3.27;;;11.00;99.90;;;;;;4974739;28;20447;-83
2022/12/20 06:27:44;;;;;;;7.07;3.43;;;11.00;99.90;;;;;;4975180;28;20636;-83
2022/12/20 06:30:11;;;;;;;4.07;3.07;;;11.00;99.90;;;;;;4974861;28;20451;-83
2022/12/20 06:32:37;;;;;;;7.30;3.53;;;11.00;99.90;;;;;;4976537;28;20189;-84
2022/12/20 06:35:03;;;;;;;5.00;3.50;;;11.00;99.90;;;;;;4975804;28;20450;-85
2022/12/20 06:37:28;;;;;;;10.10;3.10;;;11.00;99.90;;;;;;4973790;28;20467;-84
2022/12/20 06:39:54;;;;;;;6.17;2.93;;;11.00;1.00;;;;;;4971671;28;20443;-85
2022/12/20 06:42:19;;;;;;;5.23;2.80;;;11.00;99.90;;;;;;4975463;28;20657;-84
2022/12/20 06:44:45;;;;;;;3.67;3.17;;;11.00;99.90;;;;;;4972569;28;20177;-84
2022/12/20 06:47:10;;;;;;;7.30;2.77;;;11.00;1.00;;;;;;4976118;28;20196;-86
2022/12/20 06:49:36;;;;;;;5.00;2.97;;;11.00;99.90;;;;;;4976168;28;20177;-84
2022/12/20 06:52:02;;;;;;;4.03;2.40;;;11.00;1.00;;;;;;4976160;28;20185;-84
2022/12/20 06:54:27;;;;;;;3.53;2.10;;;11.00;1.00;;;;;;4972080;28;20191;-84
2022/12/20 06:56:53;;;;;;;2.67;1.87;;;11.10;1.00;;;;;;4975726;28;20192;-84
2022/12/20 06:59:18;;;;;;;3.43;2.10;;;11.20;1.00;;;;;;4975106;28;20208;-85
2022/12/20 07:01:44;;;;;;;3.60;2.10;;;11.20;99.90;;;;;;4976906;28;20188;-86
2022/12/20 07:04:09;;;;;;;5.40;1.83;;;11.30;99.90;;;;;;4974609;28;20184;-84
2022/12/20 07:06:35;;;;;;;3.30;2.00;;;11.40;99.90;;;;;;4975866;28;20192;-84
2022/12/20 07:09:01;;;;;;;4.20;1.93;;;11.40;62.60;;;;;;4972621;28;20208;-85
2022/12/20 07:11:26;;;;;;;2.67;2.13;;;11.50;1.00;;;;;;4971305;28;20188;-85
2022/12/20 07:13:56;;;;;;;2.60;1.93;;;11.50;1.00;;;;;;4974053;28;20184;-84
2022/12/20 07:16:22;;;;;;;2.50;2.07;;;11.60;99.90;;;;;;4962297;28;20220;-84
2022/12/20 07:18:51;;;;;;;2.27;2.00;;;11.60;99.90;;;;;;4974858;28;20511;-85
2022/12/20 07:21:18;;;;;;;3.17;2.20;;;11.60;99.90;;;;;;4967948;28;20447;-86
2022/12/20 07:23:44;;;;;;;5.27;2.40;;;11.60;99.90;;;;;;4969567;28;20431;-85
2022/12/20 07:26:18;;;;;;;2.33;2.13;;;11.60;99.90;;;;;;4966808;28;20449;-85
2022/12/20 07:28:44;;;;;;;2.97;2.27;;;11.60;37.90;;;;;;4973653;28;20438;-85
2022/12/20 07:31:09;;;;;;;6.23;2.17;;;11.60;1.00;;;;;;4980619;28;20506;-88
2022/12/20 07:33:36;;;;;;;3.60;1.80;;;11.70;1.00;;;;;;4975471;28;20195;-86
2022/12/20 07:36:06;;;;;;;3.17;1.80;;;11.80;1.00;;;;;;4977854;28;20286;-87
2022/12/20 07:38:33;;;;;;;2.50;2.00;;;11.80;99.90;;;;;;4972654;28;20474;-85
2022/12/20 07:40:58;;;;;;;3.70;2.37;;;11.80;99.90;;;;;;4995885;28;20938;-86
2022/12/20 07:43:24;;;;;;;4.87;1.90;;;11.90;42.80;;;;;;4977102;28;20562;-85
2022/12/20 07:45:54;;;;;;;4.23;1.70;;;11.90;1.00;;;;;;4980186;28;20189;-86
2022/12/20 07:48:20;;;;;;;2.27;1.90;;;11.90;1.00;;;;;;4973242;28;20208;-84
2022/12/20 07:50:45;;;;;;;5.70;2.10;;;11.90;1.00;;;;;;4973717;28;20443;-85
2022/12/20 07:53:11;;;;;;;3.03;1.93;;;11.90;1.00;;;;;;4960439;28;20177;-87
2022/12/20 07:55:38;;;;;;;4.20;2.13;;;12.00;99.90;;;;;;4980996;28;20271;-86
2022/12/20 07:58:06;;;;;;;2.20;2.00;;;12.00;99.90;;;;;;4983739;28;20239;-86
2022/12/20 08:00:32;;;;;;;3.27;1.90;;;12.00;99.90;;;;;;4981829;28;20876;-86
2022/12/20 08:03:06;;;;;;;3.60;1.87;;;12.00;99.90;;;;;;4973525;28;20451;-85
2022/12/20 08:05:33;;;;;;;3.10;1.90;;;12.00;99.90;;;;;;4963525;28;20991;-86
2022/12/20 08:08:00;;;;;;;2.77;1.80;;;12.00;98.40;;;;;;4959074;28;20617;-86
2022/12/20 08:10:27;;;;;;;5.10;1.83;;;12.00;1.00;;;;;;4974831;28;20443;-86
2022/12/20 08:12:53;;;;;;;4.50;1.73;;;12.10;1.00;;;;;;4981338;28;20427;-87
2022/12/20 08:15:22;;;;;;;3.23;1.90;;;12.10;1.00;;;;;;4981862;28;20816;-86
2022/12/20 08:17:50;;;;;;;2.10;1.37;;;12.10;1.00;;;;;;4981456;28;20958;-85
2022/12/20 08:20:16;;;;;;;6.60;1.80;;;12.10;1.00;;;;;;4980695;28;20428;-86
2022/12/20 08:22:42;;;;;;;4.83;1.90;;;12.10;1.00;;;;;;4948561;28;20440;-85
2022/12/20 08:25:08;;;;;;;2.83;1.97;;;12.10;1.00;;;;;;4980171;28;20419;-86
2022/12/20 08:27:36;;;;;;;4.13;2.17;;;12.10;1.00;;;;;;4958733;28;20246;-86
2022/12/20 08:30:02;;;;;;;3.83;3.03;;;12.20;1.00;;;;;;4978105;28;20482;-88
2022/12/20 08:32:28;;;;;;;2.67;1.97;;;12.20;1.00;;;;;;4980897;28;20454;-86
2022/12/20 08:34:54;;;;;;;3.70;2.07;;;12.30;99.90;;;;;;4975650;28;20652;-86
2022/12/20 08:37:19;;;;;;;3.77;1.90;;;12.30;99.90;;;;;;4967043;28;20467;-86
2022/12/20 08:39:45;;;;;;;3.23;2.03;;;12.30;99.90;;;;;;4977798;28;20440;-85
2022/12/20 08:42:12;;;;;;;2.00;1.57;;;12.40;99.90;;;;;;4985900;28;20196;-85
2022/12/20 08:44:37;;;;;;;6.57;2.10;;;12.40;99.90;;;;;;4979016;28;20630;-86
2022/12/20 08:47:03;;;;;;;3.00;1.63;;;12.40;99.90;;;;;;4980162;28;20499;-86
2022/12/20 08:49:28;;;;;;;2.27;1.70;;;12.50;25.20;;;;;;4975845;28;20189;-85
2022/12/20 08:51:54;;;;;;;1.93;1.30;;;12.50;1.00;;;;;;4978554;28;20196;-86
2022/12/20 08:54:20;;;;;;;2.63;1.83;;;12.50;1.00;;;;;;4979254;28;20579;-85
2022/12/20 08:56:45;;;;;;;2.23;1.60;;;12.50;1.00;;;;;;4977950;28;20300;-86
2022/12/20 08:59:11;;;;;;;3.00;1.60;;;12.60;1.00;;;;;;4979471;28;20218;-85
2022/12/20 09:01:36;;;;;;;2.60;1.93;;;12.60;1.00;;;;;;4959640;28;20712;-85
2022/12/20 09:04:03;;;;;;;1.97;1.60;;;12.60;1.00;;;;;;4975426;28;20188;-85
2022/12/20 09:06:28;;;;;;;2.47;1.67;;;12.60;1.00;;;;;;4977854;28;20267;-85
2022/12/20 09:08:54;;;;;;;10.47;2.63;;;12.60;1.00;;;;;;4953159;28;20443;-85
2022/12/20 09:11:25;;;;;;;4.43;2.33;;;12.60;1.00;;;;;;4982544;28;20196;-85
2022/12/20 09:13:56;;;;;;;2.00;1.60;;;12.60;1.00;;;;;;4963546;28;20459;-85
2022/12/20 09:16:24;;;;;;;2.80;1.53;;;12.70;1.00;;;;;;4992747;28;20415;-88
2022/12/20 09:18:51;;;;;;;3.47;1.87;;;12.70;1.00;;;;;;4974745;28;20456;-85
2022/12/20 09:21:18;;;;;;;6.90;1.70;;;12.70;1.00;;;;;;4988868;28;20447;-85
2022/12/20 09:23:43;;;;;;;4.83;1.53;;;12.70;1.00;;;;;;4982502;28;20598;-87
2022/12/20 09:26:12;;;;;;;3.20;1.50;;;12.70;1.00;;;;;;4979452;28;20459;-86
2022/12/20 09:28:38;;;;;;;7.53;1.90;;;12.70;1.00;;;;;;4984872;28;20200;-87
2022/12/20 09:31:06;;;;;;;4.10;1.90;;;12.70;1.00;;;;;;4978121;28;20454;-86
2022/12/20 09:33:33;;;;;;;4.40;2.07;;;12.80;1.00;;;;;;4969532;28;20448;-83
2022/12/20 09:36:01;;;;;;;3.73;1.70;;;12.80;1.00;;;;;;4977282;28;20458;-86
2022/12/20 09:38:31;;;;;;;2.47;1.80;;;12.80;1.00;;;;;;4966662;28;20470;-84
2022/12/20 09:40:59;;;;;;;4.67;2.17;;;12.80;1.00;;;;;;4968917;28;20499;-84
2022/12/20 09:43:26;;;;;;;6.20;2.03;;;12.90;1.00;;;;;;4969549;28;20451;-86
2022/12/20 09:45:57;;;;;;;3.03;1.63;;;12.90;1.00;;;;;;4972736;28;20475;-85
2022/12/20 09:48:35;;;;;;;3.30;1.80;;;12.90;1.00;;;;;;4961553;28;20509;-85
2022/12/20 09:51:20;;;;;;;4.73;1.93;;;13.00;99.90;;;;;;4967418;28;20483;-85
2022/12/20 09:53:52;;;;;;;3.93;2.80;;;13.00;99.90;;;;;;4970801;28;20500;-86
2022/12/20 09:56:22;;;;;;;2.27;1.50;;;13.10;99.90;;;;;;4971518;28;21061;-85
2022/12/20 09:59:09;;;;;;;4.33;1.70;;;13.10;99.90;;;;;;4966879;28;20495;-85
2022/12/20 10:01:35;;;;;;;6.70;1.90;;;13.10;99.90;;;;;;4968697;28;20454;-85
2022/12/20 10:04:24;;;;;;;3.63;1.57;;;13.20;99.90;;;;;;4971905;28;20450;-86
2022/12/20 10:07:10;;;;;;;2.83;2.03;;;13.20;99.90;;;;;;4966472;28;20459;-85
2022/12/20 10:10:09;;;;;;;3.00;1.67;;;13.20;99.90;;;;;;4960192;28;20552;-86
2022/12/20 10:12:50;;;;;;;3.10;1.97;;;13.20;99.90;;;;;;4973301;28;20465;-89
2022/12/20 10:15:48;;;;;;;2.93;1.77;;;13.30;34.00;;;;;;4963052;28;21015;-85
2022/12/20 10:18:45;;;;;;;4.53;2.10;;;13.40;1.00;;;;;;4955461;28;20487;-85
2022/12/20 10:21:32;;;;;;;4.93;2.23;;;13.40;1.00;;;;;;4985076;28;20420;-85
2022/12/20 10:24:04;;;;;;;2.70;1.90;;;13.50;1.00;;;;;;4948983;28;20415;-87
2022/12/20 10:26:32;;;;;;;3.00;1.90;;;13.60;1.00;;;;;;4973720;28;20441;-86
2022/12/20 10:28:57;;;;;;;2.90;1.83;;;13.70;1.00;;;;;;4976270;28;20616;-86
2022/12/20 10:31:24;;;;;;;4.20;1.70;;;13.70;1.00;;;;;;4973066;28;20535;-87
2022/12/20 10:33:50;;;;;;;3.63;1.77;;;13.90;1.00;;;;;;4973920;28;20704;-84
2022/12/20 10:36:30;;;;;;;2.77;1.80;;;13.90;99.90;;;;;;4971237;28;20446;-85
2022/12/20 10:39:04;;;;;;;4.07;1.73;;;14.10;99.90;;;;;;4973866;28;20461;-84
2022/12/20 10:41:39;;;;;;;1.50;1.40;;;14.10;99.90;;;;;;4974976;28;20437;-85
2022/12/20 10:44:18;;;;;;;2.67;2.00;;;14.20;99.90;;;;;;4954461;28;20423;-86
2022/12/20 10:46:50;;;;;;;8.40;1.90;;;14.40;99.90;;;;;;4972511;28;20453;-86
2022/12/20 10:49:27;;;;;;;3.80;1.90;;;14.60;99.90;;;;;;4973316;28;20977;-84
2022/12/20 10:51:56;;;;;;;3.10;1.80;;;14.70;99.90;;;;;;4969033;28;20442;-85
2022/12/20 10:54:27;;;;;;;4.23;1.50;;;14.70;99.90;;;;;;4972821;28;20481;-85
2022/12/20 10:56:56;;;;;;;3.20;1.87;;;14.80;99.90;;;;;;4960551;28;21047;-85
2022/12/20 10:59:37;;;;;;;5.80;2.13;;;14.80;93.20;;;;;;4968484;28;20465;-84
2022/12/20 11:02:25;;;;;;;2.27;1.63;;;14.90;36.70;;;;;;4954125;28;20443;-85
2022/12/20 11:05:19;;;;;;;2.37;1.77;;;14.90;15.10;;;;;;4955194;28;20920;-85
2022/12/20 11:08:05;;;;;;;2.70;1.60;;;14.80;4.60;;;;;;4956830;28;20470;-86
2022/12/20 11:10:31;;;;;;;2.50;1.87;;;14.70;11.80;;;;;;4952543;28;20521;-86
2022/12/20 11:12:58;;;;;;;2.80;1.80;;;14.70;17.10;;;;;;4973814;28;20450;-87
2022/12/20 11:15:35;;;;;;;2.00;1.47;;;14.60;16.40;;;;;;4972952;28;20187;-85
2022/12/20 11:18:13;;;;;;;6.00;1.80;;;14.60;18.30;;;;;;4950422;28;20884;-86
2022/12/20 11:21:14;;;;;;;5.03;1.77;;;14.50;32.90;;;;;;4968000;28;20438;-85
2022/12/20 11:24:01;;;;;;;3.27;1.50;;;14.50;34.70;;;;;;4909512;29;20947;-85
2022/12/20 11:26:44;;;;;;;4.73;1.67;;;14.40;38.00;;;;;;4969317;28;20499;-85
2022/12/20 11:29:24;;;;;;;3.87;2.00;;;14.40;21.10;;;;;;4973400;28;20408;-85
2022/12/20 11:32:15;;;;;;;2.57;1.87;;;14.40;7.50;;;;;;4976691;28;20819;-86
2022/12/20 11:34:52;;;;;;;2.60;1.77;;;14.50;1.00;;;;;;4975438;28;20426;-86
2022/12/20 11:37:24;;;;;;;8.47;2.07;;;14.50;1.00;;;;;;4958333;29;20561;-86
2022/12/20 11:40:05;;;;;;;4.90;2.00;;;14.60;1.00;;;;;;4944693;28;20422;-86
2022/12/20 11:43:03;;;;;;;1.60;1.43;;;14.60;1.00;;;;;;4977372;28;20448;-88
2022/12/20 11:45:53;;;;;;;3.03;1.93;;;14.60;1.00;;;;;;4976350;28;20877;-88
2022/12/20 11:48:48;;;;;;;2.37;1.87;;;14.60;1.00;;;;;;4976108;28;20449;-85
2022/12/20 11:51:25;;;;;;;3.50;1.90;;;14.60;1.00;;;;;;4975298;28;20447;-86
2022/12/20 11:54:08;;;;;;;3.67;1.80;;;14.60;1.00;;;;;;4975059;28;20461;-85
2022/12/20 11:56:40;;;;;;;4.63;1.83;;;14.60;1.00;;;;;;4975822;28;20913;-87
2022/12/20 11:59:37;;;;;;;3.50;1.63;;;14.50;1.00;;;;;;4976145;28;20892;-86
2022/12/20 12:02:13;;;;;;;5.40;1.80;;;14.50;1.00;;;;;;4976952;28;20835;-86
2022/12/20 12:05:17;;;;;;;3.90;1.77;;;14.40;14.10;;;;;;4960349;28;20444;-86
2022/12/20 12:07:49;;;;;;;1.93;1.57;;;14.40;90.80;;;;;;4959710;28;20536;-86
2022/12/20 12:10:22;;;;;;;3.10;1.80;;;14.30;99.90;;;;;;4976227;28;20537;-86
2022/12/20 12:13:05;;;;;;;3.87;2.57;;;14.20;99.90;;;;;;4975365;28;20432;-85
2022/12/20 12:15:53;;;;;;;2.60;1.83;;;14.10;1.00;;;;;;4971956;28;20413;-86
2022/12/20 12:18:26;;;;;;;4.60;2.53;;;14.00;91.20;;;;;;4976561;28;20630;-87
2022/12/20 12:21:04;;;;;;;4.73;2.40;;;13.90;1.00;;;;;;4976876;28;20418;-85
2022/12/20 12:24:07;;;;;;;2.70;2.30;;;13.70;99.90;;;;;;4976391;28;20883;-88
2022/12/20 12:26:34;;;;;;;2.53;2.10;;;13.60;99.90;;;;;;4968733;28;20477;-85
2022/12/20 12:29:10;;;;;;;3.97;2.27;;;13.60;99.90;;;;;;4971872;28;20488;-86
2022/12/20 12:31:46;;;;;;;5.03;2.40;;;13.50;1.00;;;;;;4959578;28;20407;-86
2022/12/20 12:34:39;;;;;;;4.20;2.83;;;13.40;99.90;;;;;;4957798;29;20774;-87
2022/12/20 12:37:29;;;;;;;2.87;1.90;;;13.40;37.80;;;;;;4956588;28;20433;-85
2022/12/20 12:40:16;;;;;;;3.40;1.90;;;13.30;99.90;;;;;;4956176;28;20444;-86
2022/12/20 12:43:13;;;;;;;4.60;2.30;;;13.30;1.00;;;;;;4975277;28;20859;-85
2022/12/20 12:45:54;;;;;;;5.17;2.20;;;13.20;1.00;;;;;;4971244;28;20451;-86
2022/12/20 12:48:29;;;;;;;3.43;2.10;;;13.20;40.70;;;;;;4976936;28;20511;-86
2022/12/20 12:50:57;;;;;;;7.20;2.47;;;13.10;99.90;;;;;;4974204;28;20431;-86
2022/12/20 12:53:34;;;;;;;2.50;2.30;;;13.10;99.90;;;;;;4993697;28;20420;-85
2022/12/20 12:56:26;;;;;;;4.17;2.70;;;13.10;99.90;;;;;;4980938;28;20408;-86
2022/12/20 12:59:08;;;;;;;5.37;2.37;;;13.10;99.90;;;;;;4984234;28;20494;-85
2022/12/20 13:02:14;;;;;;;4.10;2.20;;;13.00;99.90;;;;;;4972833;28;20443;-86
2022/12/20 13:04:54;;;;;;;7.20;2.53;;;13.10;99.90;;;;;;4955609;28;20420;-85
2022/12/20 13:07:43;;;;;;;4.20;2.60;;;13.10;99.90;;;;;;4975403;28;20434;-86
2022/12/20 13:10:12;;;;;;;6.37;2.50;;;13.10;30.30;;;;;;4969898;28;20872;-86
2022/12/20 13:12:37;;;;;;;4.23;2.03;;;13.10;1.00;;;;;;4975353;28;20861;-85
2022/12/20 13:15:23;;;;;;;3.73;1.90;;;13.20;1.00;;;;;;4975189;28;20498;-86
2022/12/20 13:18:01;;;;;;;3.03;2.63;;;13.20;99.90;;;;;;4956931;28;20266;-85
2022/12/20 13:20:29;;;;;;;3.60;1.70;;;13.20;76.60;;;;;;4959390;28;20423;-85
2022/12/20 13:23:16;;;;;;;3.63;1.80;;;13.20;1.00;;;;;;4957879;28;20470;-85
2022/12/20 13:25:53;;;;;;;3.87;1.70;;;13.20;1.00;;;;;;4975442;28;20411;-86
2022/12/20 13:28:18;;;;;;;3.57;1.70;;;13.20;1.00;;;;;;4974842;28;20790;-86
2022/12/20 13:31:11;;;;;;;2.07;1.57;;;13.20;1.00;;;;;;4975637;28;20418;-86
2022/12/20 13:33:45;;;;;;;4.40;2.10;;;13.20;1.00;;;;;;4963290;28;20196;-85
2022/12/20 13:36:10;;;;;;;5.47;2.03;;;13.20;1.00;;;;;;4956025;28;20412;-86
2022/12/20 13:38:36;;;;;;;3.53;2.03;;;13.10;1.00;;;;;;4970348;28;20501;-86
2022/12/20 13:41:18;;;;;;;3.50;2.00;;;13.10;27.50;;;;;;4975273;28;20731;-86